KMTJ

Montrose Regional Airport

Montrose, Colorado, USA
METAR KMTJ 221453Z AUTO 17007KT 10SM CLR 07/01 A3024 RMK AO2 SLP208 T00720011 53007
Observed Flight Rules
Oct-22 @ 14:53 UTC (21 minutes ago) Visual Flight Rules
Wind Visibility Clouds
170° at 7 knots 10 miles
  • Clear skies
Temperatures Readings
Current 7°C / 45°F
Dewpoint 1°C / 34°F
Humidity 66%
Altimeter 30.24" Hg
Pressure 1020.8 hPa
Elevation 1750
METAR KMTJ 221453Z AUTO 17007KT 10SM CLR 07/01 A3024 RMK AO2 SLP208 T00720011 53007
Observed Flight Rules
Oct-22 @ 14:53 UTC
(21 minutes ago)
VFR
Wind Visibility
170° at 7 knots 10 miles
Clouds
  • Clear skies
Temperature Dewpoint
7°C / 45°F 1°C / 34°F
Humidity Altimeter Pressure
66% 30.24" Hg 1020.8 hPa